sensor_id;sensor_type;location;lat;lon;timestamp;P1;durP1;ratioP1;P2;durP2;ratioP2
48363;SDS011;34170;54.364;18.582;2022-10-15T00:01:29;64.05;;;36.42;;
48363;SDS011;34170;54.364;18.582;2022-10-15T00:03:58;69.60;;;39.72;;
48363;SDS011;34170;54.364;18.582;2022-10-15T00:06:27;71.43;;;41.67;;
48363;SDS011;34170;54.364;18.582;2022-10-15T00:08:54;74.53;;;42.85;;
48363;SDS011;34170;54.364;18.582;2022-10-15T00:11:22;74.93;;;43.45;;
48363;SDS011;34170;54.364;18.582;2022-10-15T00:13:52;78.88;;;45.13;;
48363;SDS011;34170;54.364;18.582;2022-10-15T00:16:21;91.57;;;48.70;;
48363;SDS011;34170;54.364;18.582;2022-10-15T00:18:50;86.55;;;48.13;;
48363;SDS011;34170;54.364;18.582;2022-10-15T00:21:18;95.18;;;48.40;;
48363;SDS011;34170;54.364;18.582;2022-10-15T00:23:47;87.47;;;46.05;;
48363;SDS011;34170;54.364;18.582;2022-10-15T00:26:16;85.10;;;46.15;;
48363;SDS011;34170;54.364;18.582;2022-10-15T00:28:47;83.20;;;46.17;;
48363;SDS011;34170;54.364;18.582;2022-10-15T00:31:20;80.15;;;44.80;;
48363;SDS011;34170;54.364;18.582;2022-10-15T00:33:50;81.28;;;44.05;;
48363;SDS011;34170;54.364;18.582;2022-10-15T00:36:20;74.07;;;43.03;;
48363;SDS011;34170;54.364;18.582;2022-10-15T00:38:52;76.20;;;44.80;;
48363;SDS011;34170;54.364;18.582;2022-10-15T00:41:22;76.72;;;44.03;;
48363;SDS011;34170;54.364;18.582;2022-10-15T00:46:47;75.13;;;42.58;;
48363;SDS011;34170;54.364;18.582;2022-10-15T00:49:29;84.50;;;45.83;;
48363;SDS011;34170;54.364;18.582;2022-10-15T00:52:01;81.53;;;45.45;;
48363;SDS011;34170;54.364;18.582;2022-10-15T00:55:15;83.65;;;45.83;;
48363;SDS011;34170;54.364;18.582;2022-10-15T00:57:48;81.97;;;46.20;;
48363;SDS011;34170;54.364;18.582;2022-10-15T01:00:17;94.22;;;48.67;;
48363;SDS011;34170;54.364;18.582;2022-10-15T01:02:45;86.00;;;46.33;;
48363;SDS011;34170;54.364;18.582;2022-10-15T01:05:14;93.05;;;53.25;;
48363;SDS011;34170;54.364;18.582;2022-10-15T01:07:43;83.57;;;48.58;;
48363;SDS011;34170;54.364;18.582;2022-10-15T01:10:13;87.63;;;49.17;;
48363;SDS011;34170;54.364;18.582;2022-10-15T01:12:46;82.25;;;48.13;;
48363;SDS011;34170;54.364;18.582;2022-10-15T01:15:25;91.57;;;50.15;;
48363;SDS011;34170;54.364;18.582;2022-10-15T01:30:59;109.35;;;57.47;;
48363;SDS011;34170;54.364;18.582;2022-10-15T01:33:36;103.05;;;56.83;;
48363;SDS011;34170;54.364;18.582;2022-10-15T01:36:14;101.00;;;55.03;;
48363;SDS011;34170;54.364;18.582;2022-10-15T01:38:58;96.80;;;54.97;;
48363;SDS011;34170;54.364;18.582;2022-10-15T01:42:02;108.93;;;55.97;;
48363;SDS011;34170;54.364;18.582;2022-10-15T01:44:41;109.03;;;60.83;;
48363;SDS011;34170;54.364;18.582;2022-10-15T01:47:44;113.07;;;59.75;;
48363;SDS011;34170;54.364;18.582;2022-10-15T01:50:18;113.60;;;60.63;;
48363;SDS011;34170;54.364;18.582;2022-10-15T01:52:49;109.93;;;57.35;;
48363;SDS011;34170;54.364;18.582;2022-10-15T01:55:18;105.18;;;57.92;;
48363;SDS011;34170;54.364;18.582;2022-10-15T01:57:48;105.47;;;58.35;;
48363;SDS011;34170;54.364;18.582;2022-10-15T02:00:16;109.50;;;58.17;;
48363;SDS011;34170;54.364;18.582;2022-10-15T02:02:43;99.55;;;54.50;;
48363;SDS011;34170;54.364;18.582;2022-10-15T02:05:15;97.43;;;55.83;;
48363;SDS011;34170;54.364;18.582;2022-10-15T02:08:00;100.80;;;53.95;;
48363;SDS011;34170;54.364;18.582;2022-10-15T02:21:09;86.13;;;48.25;;
48363;SDS011;34170;54.364;18.582;2022-10-15T02:26:25;93.63;;;52.08;;
48363;SDS011;34170;54.364;18.582;2022-10-15T02:28:55;89.00;;;51.65;;
48363;SDS011;34170;54.364;18.582;2022-10-15T02:31:26;101.82;;;55.28;;
48363;SDS011;34170;54.364;18.582;2022-10-15T02:33:59;105.78;;;56.75;;
48363;SDS011;34170;54.364;18.582;2022-10-15T02:36:31;111.03;;;58.22;;
48363;SDS011;34170;54.364;18.582;2022-10-15T02:39:03;109.38;;;58.33;;
48363;SDS011;34170;54.364;18.582;2022-10-15T02:41:33;114.68;;;62.38;;
48363;SDS011;34170;54.364;18.582;2022-10-15T02:44:02;118.32;;;63.13;;
48363;SDS011;34170;54.364;18.582;2022-10-15T02:46:29;118.22;;;64.50;;
48363;SDS011;34170;54.364;18.582;2022-10-15T02:48:57;118.25;;;61.58;;
48363;SDS011;34170;54.364;18.582;2022-10-15T02:51:24;116.43;;;60.03;;
48363;SDS011;34170;54.364;18.582;2022-10-15T02:53:51;118.28;;;59.03;;
48363;SDS011;34170;54.364;18.582;2022-10-15T02:56:19;109.28;;;57.67;;
48363;SDS011;34170;54.364;18.582;2022-10-15T02:58:46;111.00;;;57.13;;
48363;SDS011;34170;54.364;18.582;2022-10-15T03:01:13;104.18;;;58.45;;
48363;SDS011;34170;54.364;18.582;2022-10-15T03:03:41;108.95;;;58.60;;
48363;SDS011;34170;54.364;18.582;2022-10-15T03:06:08;119.72;;;60.75;;
48363;SDS011;34170;54.364;18.582;2022-10-15T03:08:35;110.70;;;60.15;;
48363;SDS011;34170;54.364;18.582;2022-10-15T03:11:03;115.18;;;60.08;;
48363;SDS011;34170;54.364;18.582;2022-10-15T03:13:34;113.78;;;60.13;;
48363;SDS011;34170;54.364;18.582;2022-10-15T03:16:05;126.57;;;64.50;;
48363;SDS011;34170;54.364;18.582;2022-10-15T03:18:35;127.57;;;65.03;;
48363;SDS011;34170;54.364;18.582;2022-10-15T03:21:08;122.72;;;65.50;;
48363;SDS011;34170;54.364;18.582;2022-10-15T03:23:36;133.75;;;64.15;;
48363;SDS011;34170;54.364;18.582;2022-10-15T03:26:08;128.20;;;64.50;;
48363;SDS011;34170;54.364;18.582;2022-10-15T03:28:36;127.60;;;65.07;;
48363;SDS011;34170;54.364;18.582;2022-10-15T03:31:04;129.90;;;64.53;;
48363;SDS011;34170;54.364;18.582;2022-10-15T03:33:31;138.57;;;67.45;;
48363;SDS011;34170;54.364;18.582;2022-10-15T03:36:00;130.05;;;66.35;;
48363;SDS011;34170;54.364;18.582;2022-10-15T03:38:27;138.93;;;64.80;;
48363;SDS011;34170;54.364;18.582;2022-10-15T03:40:55;129.15;;;65.10;;
48363;SDS011;34170;54.364;18.582;2022-10-15T03:43:36;130.93;;;62.45;;
48363;SDS011;34170;54.364;18.582;2022-10-15T03:46:08;138.90;;;68.15;;
48363;SDS011;34170;54.364;18.582;2022-10-15T03:48:40;144.70;;;68.90;;
48363;SDS011;34170;54.364;18.582;2022-10-15T03:51:10;137.32;;;69.25;;
48363;SDS011;34170;54.364;18.582;2022-10-15T03:53:40;137.18;;;67.88;;
48363;SDS011;34170;54.364;18.582;2022-10-15T03:56:08;155.27;;;73.40;;
48363;SDS011;34170;54.364;18.582;2022-10-15T03:58:37;140.80;;;70.47;;
48363;SDS011;34170;54.364;18.582;2022-10-15T04:01:10;155.27;;;73.47;;
48363;SDS011;34170;54.364;18.582;2022-10-15T04:03:39;159.90;;;75.53;;
48363;SDS011;34170;54.364;18.582;2022-10-15T04:06:07;161.38;;;77.72;;
48363;SDS011;34170;54.364;18.582;2022-10-15T04:08:35;157.13;;;77.47;;
48363;SDS011;34170;54.364;18.582;2022-10-15T04:11:17;164.18;;;76.07;;
48363;SDS011;34170;54.364;18.582;2022-10-15T04:13:51;170.38;;;77.13;;
48363;SDS011;34170;54.364;18.582;2022-10-15T04:16:19;162.75;;;77.43;;
48363;SDS011;34170;54.364;18.582;2022-10-15T04:18:46;171.93;;;81.30;;
48363;SDS011;34170;54.364;18.582;2022-10-15T04:21:14;179.52;;;84.35;;
48363;SDS011;34170;54.364;18.582;2022-10-15T04:26:22;165.43;;;78.13;;
48363;SDS011;34170;54.364;18.582;2022-10-15T04:28:50;183.85;;;83.30;;
48363;SDS011;34170;54.364;18.582;2022-10-15T04:31:19;178.77;;;81.82;;
48363;SDS011;34170;54.364;18.582;2022-10-15T04:33:48;189.02;;;84.40;;
48363;SDS011;34170;54.364;18.582;2022-10-15T04:36:15;194.82;;;83.05;;
48363;SDS011;34170;54.364;18.582;2022-10-15T04:38:56;182.65;;;82.00;;
48363;SDS011;34170;54.364;18.582;2022-10-15T04:41:43;179.20;;;81.65;;
48363;SDS011;34170;54.364;18.582;2022-10-15T04:44:21;186.15;;;85.70;;
48363;SDS011;34170;54.364;18.582;2022-10-15T04:46:53;192.95;;;82.70;;
48363;SDS011;34170;54.364;18.582;2022-10-15T04:49:47;202.82;;;88.03;;
48363;SDS011;34170;54.364;18.582;2022-10-15T04:52:32;203.82;;;90.53;;
48363;SDS011;34170;54.364;18.582;2022-10-15T04:55:05;221.27;;;95.85;;
48363;SDS011;34170;54.364;18.582;2022-10-15T04:57:35;217.15;;;93.03;;
48363;SDS011;34170;54.364;18.582;2022-10-15T05:00:03;230.43;;;96.03;;
48363;SDS011;34170;54.364;18.582;2022-10-15T05:02:31;220.02;;;91.47;;
48363;SDS011;34170;54.364;18.582;2022-10-15T05:05:17;227.25;;;96.10;;
48363;SDS011;34170;54.364;18.582;2022-10-15T05:07:51;222.68;;;93.00;;
48363;SDS011;34170;54.364;18.582;2022-10-15T05:10:18;231.10;;;97.70;;
48363;SDS011;34170;54.364;18.582;2022-10-15T05:12:46;239.60;;;96.10;;
48363;SDS011;34170;54.364;18.582;2022-10-15T05:15:26;219.48;;;89.95;;
48363;SDS011;34170;54.364;18.582;2022-10-15T05:17:53;243.13;;;100.25;;
48363;SDS011;34170;54.364;18.582;2022-10-15T05:20:22;233.57;;;97.35;;
48363;SDS011;34170;54.364;18.582;2022-10-15T05:22:50;232.32;;;96.60;;
48363;SDS011;34170;54.364;18.582;2022-10-15T05:25:17;216.40;;;89.80;;
48363;SDS011;34170;54.364;18.582;2022-10-15T05:27:46;225.05;;;94.03;;
48363;SDS011;34170;54.364;18.582;2022-10-15T05:30:14;233.48;;;97.65;;
48363;SDS011;34170;54.364;18.582;2022-10-15T05:32:50;242.00;;;102.15;;
48363;SDS011;34170;54.364;18.582;2022-10-15T05:35:20;233.73;;;99.53;;
48363;SDS011;34170;54.364;18.582;2022-10-15T05:37:53;247.65;;;97.32;;
48363;SDS011;34170;54.364;18.582;2022-10-15T05:40:22;245.55;;;99.13;;
48363;SDS011;34170;54.364;18.582;2022-10-15T05:43:18;243.18;;;100.68;;
48363;SDS011;34170;54.364;18.582;2022-10-15T05:45:47;223.63;;;90.93;;
48363;SDS011;34170;54.364;18.582;2022-10-15T05:48:14;236.10;;;94.57;;
48363;SDS011;34170;54.364;18.582;2022-10-15T05:50:41;246.18;;;96.90;;
48363;SDS011;34170;54.364;18.582;2022-10-15T05:53:14;232.98;;;93.70;;
48363;SDS011;34170;54.364;18.582;2022-10-15T05:55:44;236.90;;;93.35;;
48363;SDS011;34170;54.364;18.582;2022-10-15T05:58:11;221.55;;;92.25;;
48363;SDS011;34170;54.364;18.582;2022-10-15T06:00:38;238.50;;;95.20;;
48363;SDS011;34170;54.364;18.582;2022-10-15T06:03:05;218.30;;;91.72;;
48363;SDS011;34170;54.364;18.582;2022-10-15T06:05:36;217.82;;;91.35;;
48363;SDS011;34170;54.364;18.582;2022-10-15T06:08:04;206.27;;;88.35;;
48363;SDS011;34170;54.364;18.582;2022-10-15T06:10:33;192.98;;;83.40;;
48363;SDS011;34170;54.364;18.582;2022-10-15T06:13:02;193.75;;;81.97;;
48363;SDS011;34170;54.364;18.582;2022-10-15T06:15:31;202.25;;;85.50;;
48363;SDS011;34170;54.364;18.582;2022-10-15T06:18:00;184.52;;;79.70;;
48363;SDS011;34170;54.364;18.582;2022-10-15T06:20:27;170.52;;;75.88;;
48363;SDS011;34170;54.364;18.582;2022-10-15T06:22:55;169.95;;;78.47;;
48363;SDS011;34170;54.364;18.582;2022-10-15T06:25:24;172.35;;;76.03;;
48363;SDS011;34170;54.364;18.582;2022-10-15T06:27:52;174.00;;;76.65;;
48363;SDS011;34170;54.364;18.582;2022-10-15T06:30:19;175.90;;;75.97;;
48363;SDS011;34170;54.364;18.582;2022-10-15T06:32:48;160.68;;;75.28;;
48363;SDS011;34170;54.364;18.582;2022-10-15T06:35:16;163.48;;;72.40;;
48363;SDS011;34170;54.364;18.582;2022-10-15T06:37:44;152.00;;;71.82;;
48363;SDS011;34170;54.364;18.582;2022-10-15T06:40:13;148.63;;;71.90;;
48363;SDS011;34170;54.364;18.582;2022-10-15T06:42:43;152.07;;;71.63;;
48363;SDS011;34170;54.364;18.582;2022-10-15T06:45:11;137.60;;;67.13;;
48363;SDS011;34170;54.364;18.582;2022-10-15T06:47:41;146.25;;;68.90;;
48363;SDS011;34170;54.364;18.582;2022-10-15T06:50:09;141.93;;;67.55;;
48363;SDS011;34170;54.364;18.582;2022-10-15T06:52:36;159.50;;;75.50;;
48363;SDS011;34170;54.364;18.582;2022-10-15T06:55:09;156.07;;;71.22;;
48363;SDS011;34170;54.364;18.582;2022-10-15T06:57:36;157.45;;;73.43;;
48363;SDS011;34170;54.364;18.582;2022-10-15T07:00:04;161.50;;;73.97;;
48363;SDS011;34170;54.364;18.582;2022-10-15T07:02:33;160.48;;;77.95;;
48363;SDS011;34170;54.364;18.582;2022-10-15T07:05:10;168.77;;;74.75;;
48363;SDS011;34170;54.364;18.582;2022-10-15T07:07:41;175.02;;;79.22;;
48363;SDS011;34170;54.364;18.582;2022-10-15T07:10:08;167.10;;;74.82;;
48363;SDS011;34170;54.364;18.582;2022-10-15T07:12:48;153.07;;;71.18;;
48363;SDS011;34170;54.364;18.582;2022-10-15T07:15:16;139.38;;;67.07;;
48363;SDS011;34170;54.364;18.582;2022-10-15T07:17:49;113.95;;;58.60;;
48363;SDS011;34170;54.364;18.582;2022-10-15T07:20:18;108.10;;;57.00;;
48363;SDS011;34170;54.364;18.582;2022-10-15T07:22:50;111.95;;;57.95;;
48363;SDS011;34170;54.364;18.582;2022-10-15T07:25:26;113.38;;;57.38;;
48363;SDS011;34170;54.364;18.582;2022-10-15T07:27:54;117.25;;;59.25;;
48363;SDS011;34170;54.364;18.582;2022-10-15T07:30:27;114.28;;;57.70;;
48363;SDS011;34170;54.364;18.582;2022-10-15T07:33:03;102.93;;;55.63;;
48363;SDS011;34170;54.364;18.582;2022-10-15T07:35:33;100.65;;;54.45;;
48363;SDS011;34170;54.364;18.582;2022-10-15T07:38:06;95.07;;;50.25;;
48363;SDS011;34170;54.364;18.582;2022-10-15T07:40:33;92.63;;;52.08;;
48363;SDS011;34170;54.364;18.582;2022-10-15T07:43:00;91.85;;;50.85;;
48363;SDS011;34170;54.364;18.582;2022-10-15T07:45:30;94.90;;;51.75;;
48363;SDS011;34170;54.364;18.582;2022-10-15T07:47:57;84.20;;;47.90;;
48363;SDS011;34170;54.364;18.582;2022-10-15T07:50:24;88.72;;;51.00;;
48363;SDS011;34170;54.364;18.582;2022-10-15T07:53:03;76.40;;;45.75;;
48363;SDS011;34170;54.364;18.582;2022-10-15T07:55:30;82.53;;;46.65;;
48363;SDS011;34170;54.364;18.582;2022-10-15T07:57:58;74.75;;;44.70;;
48363;SDS011;34170;54.364;18.582;2022-10-15T08:00:28;77.57;;;45.45;;
48363;SDS011;34170;54.364;18.582;2022-10-15T08:02:56;85.03;;;48.10;;
48363;SDS011;34170;54.364;18.582;2022-10-15T08:05:23;81.00;;;44.95;;
48363;SDS011;34170;54.364;18.582;2022-10-15T08:07:50;79.80;;;43.75;;
48363;SDS011;34170;54.364;18.582;2022-10-15T08:10:17;74.78;;;43.28;;
48363;SDS011;34170;54.364;18.582;2022-10-15T08:12:45;74.55;;;45.05;;
48363;SDS011;34170;54.364;18.582;2022-10-15T08:15:15;78.40;;;44.58;;
48363;SDS011;34170;54.364;18.582;2022-10-15T08:17:47;70.35;;;41.38;;
48363;SDS011;34170;54.364;18.582;2022-10-15T08:20:14;65.45;;;39.30;;
48363;SDS011;34170;54.364;18.582;2022-10-15T08:22:44;67.53;;;40.28;;
48363;SDS011;34170;54.364;18.582;2022-10-15T08:25:11;62.83;;;38.97;;
48363;SDS011;34170;54.364;18.582;2022-10-15T08:30:10;69.93;;;40.42;;
48363;SDS011;34170;54.364;18.582;2022-10-15T08:32:40;69.28;;;40.88;;
48363;SDS011;34170;54.364;18.582;2022-10-15T08:35:10;68.55;;;38.97;;
48363;SDS011;34170;54.364;18.582;2022-10-15T08:37:37;64.88;;;40.60;;
48363;SDS011;34170;54.364;18.582;2022-10-15T08:40:05;66.85;;;41.40;;
48363;SDS011;34170;54.364;18.582;2022-10-15T08:42:37;67.07;;;41.72;;
48363;SDS011;34170;54.364;18.582;2022-10-15T08:45:11;71.22;;;41.03;;
48363;SDS011;34170;54.364;18.582;2022-10-15T08:50:19;67.38;;;40.72;;
48363;SDS011;34170;54.364;18.582;2022-10-15T08:53:01;69.70;;;38.95;;
48363;SDS011;34170;54.364;18.582;2022-10-15T08:55:33;71.85;;;38.25;;
48363;SDS011;34170;54.364;18.582;2022-10-15T08:58:24;69.00;;;40.28;;
48363;SDS011;34170;54.364;18.582;2022-10-15T09:01:14;67.43;;;38.58;;
48363;SDS011;34170;54.364;18.582;2022-10-15T09:03:52;68.13;;;39.53;;
48363;SDS011;34170;54.364;18.582;2022-10-15T09:06:37;63.10;;;36.45;;
48363;SDS011;34170;54.364;18.582;2022-10-15T09:09:06;60.15;;;37.17;;
48363;SDS011;34170;54.364;18.582;2022-10-15T09:14:45;65.88;;;37.03;;
48363;SDS011;34170;54.364;18.582;2022-10-15T09:17:19;57.90;;;35.58;;
48363;SDS011;34170;54.364;18.582;2022-10-15T09:19:50;61.10;;;34.00;;
48363;SDS011;34170;54.364;18.582;2022-10-15T09:22:24;57.60;;;34.13;;
48363;SDS011;34170;54.364;18.582;2022-10-15T09:24:53;53.85;;;33.58;;
48363;SDS011;34170;54.364;18.582;2022-10-15T09:30:22;53.20;;;31.35;;
48363;SDS011;34170;54.364;18.582;2022-10-15T09:33:17;52.05;;;30.48;;
48363;SDS011;34170;54.364;18.582;2022-10-15T09:36:31;48.10;;;29.65;;
48363;SDS011;34170;54.364;18.582;2022-10-15T09:44:45;45.85;;;27.63;;
48363;SDS011;34170;54.364;18.582;2022-10-15T09:47:23;50.38;;;30.08;;
48363;SDS011;34170;54.364;18.582;2022-10-15T09:49:59;48.75;;;29.52;;
48363;SDS011;34170;54.364;18.582;2022-10-15T09:55:27;42.45;;;29.65;;
48363;SDS011;34170;54.364;18.582;2022-10-15T09:58:02;49.03;;;28.80;;
48363;SDS011;34170;54.364;18.582;2022-10-15T10:03:34;47.65;;;28.90;;
48363;SDS011;34170;54.364;18.582;2022-10-15T10:08:50;45.50;;;27.98;;
48363;SDS011;34170;54.364;18.582;2022-10-15T10:11:21;46.55;;;28.00;;
48363;SDS011;34170;54.364;18.582;2022-10-15T10:13:54;50.10;;;29.75;;
48363;SDS011;34170;54.364;18.582;2022-10-15T10:16:24;49.63;;;30.98;;
48363;SDS011;34170;54.364;18.582;2022-10-15T10:19:04;51.58;;;31.83;;
48363;SDS011;34170;54.364;18.582;2022-10-15T10:21:40;48.85;;;30.52;;
48363;SDS011;34170;54.364;18.582;2022-10-15T10:24:25;54.78;;;29.40;;
48363;SDS011;34170;54.364;18.582;2022-10-15T10:26:56;50.83;;;30.10;;
48363;SDS011;34170;54.364;18.582;2022-10-15T10:29:25;52.83;;;31.52;;
48363;SDS011;34170;54.364;18.582;2022-10-15T10:32:18;54.10;;;34.00;;
48363;SDS011;34170;54.364;18.582;2022-10-15T10:34:48;50.22;;;30.63;;
48363;SDS011;34170;54.364;18.582;2022-10-15T10:37:19;53.33;;;32.10;;
48363;SDS011;34170;54.364;18.582;2022-10-15T10:39:53;53.63;;;31.35;;
48363;SDS011;34170;54.364;18.582;2022-10-15T10:42:32;53.42;;;30.92;;
48363;SDS011;34170;54.364;18.582;2022-10-15T10:47:46;50.30;;;30.33;;
48363;SDS011;34170;54.364;18.582;2022-10-15T10:50:34;54.83;;;30.50;;
48363;SDS011;34170;54.364;18.582;2022-10-15T10:53:20;53.83;;;30.05;;
48363;SDS011;34170;54.364;18.582;2022-10-15T10:55:51;57.50;;;31.75;;
48363;SDS011;34170;54.364;18.582;2022-10-15T10:58:23;55.22;;;33.85;;
48363;SDS011;34170;54.364;18.582;2022-10-15T11:00:55;59.53;;;33.50;;
48363;SDS011;34170;54.364;18.582;2022-10-15T11:03:37;58.22;;;34.95;;
48363;SDS011;34170;54.364;18.582;2022-10-15T11:09:16;62.25;;;36.97;;
48363;SDS011;34170;54.364;18.582;2022-10-15T11:12:02;57.67;;;36.03;;
48363;SDS011;34170;54.364;18.582;2022-10-15T11:23:53;49.88;;;30.83;;
48363;SDS011;34170;54.364;18.582;2022-10-15T11:30:09;47.63;;;29.35;;
48363;SDS011;34170;54.364;18.582;2022-10-15T11:33:08;52.38;;;32.08;;
48363;SDS011;34170;54.364;18.582;2022-10-15T11:36:36;48.33;;;29.02;;
48363;SDS011;34170;54.364;18.582;2022-10-15T11:44:20;49.35;;;30.08;;
48363;SDS011;34170;54.364;18.582;2022-10-15T11:50:27;53.90;;;32.70;;
48363;SDS011;34170;54.364;18.582;2022-10-15T11:53:02;52.90;;;29.35;;
48363;SDS011;34170;54.364;18.582;2022-10-15T11:58:45;49.15;;;29.38;;
48363;SDS011;34170;54.364;18.582;2022-10-15T12:01:32;50.25;;;29.83;;
48363;SDS011;34170;54.364;18.582;2022-10-15T12:04:13;50.33;;;29.33;;
48363;SDS011;34170;54.364;18.582;2022-10-15T12:06:49;52.85;;;30.67;;
48363;SDS011;34170;54.364;18.582;2022-10-15T12:09:29;54.75;;;32.42;;
48363;SDS011;34170;54.364;18.582;2022-10-15T12:17:29;51.65;;;31.60;;
48363;SDS011;34170;54.364;18.582;2022-10-15T12:20:12;49.05;;;29.88;;
48363;SDS011;34170;54.364;18.582;2022-10-15T12:28:18;43.58;;;24.73;;
48363;SDS011;34170;54.364;18.582;2022-10-15T12:33:28;42.35;;;24.40;;
48363;SDS011;34170;54.364;18.582;2022-10-15T12:36:00;37.08;;;23.55;;
48363;SDS011;34170;54.364;18.582;2022-10-15T12:38:55;36.80;;;22.85;;
48363;SDS011;34170;54.364;18.582;2022-10-15T12:41:33;33.33;;;21.08;;
48363;SDS011;34170;54.364;18.582;2022-10-15T12:44:42;35.70;;;21.80;;
48363;SDS011;34170;54.364;18.582;2022-10-15T12:47:02;32.00;;;19.98;;
48363;SDS011;34170;54.364;18.582;2022-10-15T12:51:58;32.35;;;20.25;;
48363;SDS011;34170;54.364;18.582;2022-10-15T12:54:35;32.20;;;21.20;;
48363;SDS011;34170;54.364;18.582;2022-10-15T13:00:01;33.40;;;20.75;;
48363;SDS011;34170;54.364;18.582;2022-10-15T13:02:48;37.13;;;22.02;;
48363;SDS011;34170;54.364;18.582;2022-10-15T13:05:27;33.53;;;19.42;;
48363;SDS011;34170;54.364;18.582;2022-10-15T13:07:58;32.20;;;19.38;;
48363;SDS011;34170;54.364;18.582;2022-10-15T13:10:28;34.80;;;22.00;;
48363;SDS011;34170;54.364;18.582;2022-10-15T13:13:01;34.90;;;23.10;;
48363;SDS011;34170;54.364;18.582;2022-10-15T13:17:59;39.05;;;23.88;;
48363;SDS011;34170;54.364;18.582;2022-10-15T13:20:33;38.33;;;22.13;;
48363;SDS011;34170;54.364;18.582;2022-10-15T13:23:23;35.80;;;23.00;;
48363;SDS011;34170;54.364;18.582;2022-10-15T13:28:38;40.42;;;24.98;;
48363;SDS011;34170;54.364;18.582;2022-10-15T13:31:15;39.90;;;24.80;;
48363;SDS011;34170;54.364;18.582;2022-10-15T13:33:57;36.08;;;23.33;;
48363;SDS011;34170;54.364;18.582;2022-10-15T13:36:31;36.35;;;23.85;;
48363;SDS011;34170;54.364;18.582;2022-10-15T13:39:04;39.22;;;24.20;;
48363;SDS011;34170;54.364;18.582;2022-10-15T13:41:35;39.33;;;24.52;;
48363;SDS011;34170;54.364;18.582;2022-10-15T13:44:17;42.60;;;24.40;;
48363;SDS011;34170;54.364;18.582;2022-10-15T13:46:47;42.60;;;26.98;;
48363;SDS011;34170;54.364;18.582;2022-10-15T13:49:16;46.53;;;26.80;;
48363;SDS011;34170;54.364;18.582;2022-10-15T13:51:50;46.30;;;27.23;;
48363;SDS011;34170;54.364;18.582;2022-10-15T13:54:20;45.47;;;27.17;;
48363;SDS011;34170;54.364;18.582;2022-10-15T13:56:51;43.95;;;25.05;;
48363;SDS011;34170;54.364;18.582;2022-10-15T13:59:24;42.15;;;25.50;;
48363;SDS011;34170;54.364;18.582;2022-10-15T14:01:58;41.10;;;25.23;;
48363;SDS011;34170;54.364;18.582;2022-10-15T14:04:29;41.95;;;25.02;;
48363;SDS011;34170;54.364;18.582;2022-10-15T14:07:02;48.08;;;27.38;;
48363;SDS011;34170;54.364;18.582;2022-10-15T14:09:44;44.53;;;24.73;;
48363;SDS011;34170;54.364;18.582;2022-10-15T14:12:13;42.65;;;25.88;;
48363;SDS011;34170;54.364;18.582;2022-10-15T14:14:41;39.78;;;25.10;;
48363;SDS011;34170;54.364;18.582;2022-10-15T14:19:45;44.45;;;25.60;;
48363;SDS011;34170;54.364;18.582;2022-10-15T14:22:36;43.00;;;26.45;;
48363;SDS011;34170;54.364;18.582;2022-10-15T14:25:06;40.95;;;24.48;;
48363;SDS011;34170;54.364;18.582;2022-10-15T14:27:36;40.03;;;25.17;;
48363;SDS011;34170;54.364;18.582;2022-10-15T14:30:11;40.80;;;24.15;;
48363;SDS011;34170;54.364;18.582;2022-10-15T14:32:44;42.13;;;24.35;;
48363;SDS011;34170;54.364;18.582;2022-10-15T14:35:23;42.42;;;25.38;;
48363;SDS011;34170;54.364;18.582;2022-10-15T14:40:25;38.92;;;23.92;;
48363;SDS011;34170;54.364;18.582;2022-10-15T14:45:25;36.20;;;23.23;;
48363;SDS011;34170;54.364;18.582;2022-10-15T14:47:55;39.53;;;23.23;;
48363;SDS011;34170;54.364;18.582;2022-10-15T14:50:31;38.78;;;23.45;;
48363;SDS011;34170;54.364;18.582;2022-10-15T14:53:05;41.38;;;24.15;;
48363;SDS011;34170;54.364;18.582;2022-10-15T14:55:37;37.42;;;23.08;;
48363;SDS011;34170;54.364;18.582;2022-10-15T14:58:10;41.13;;;25.25;;
48363;SDS011;34170;54.364;18.582;2022-10-15T15:00:44;40.22;;;25.42;;
48363;SDS011;34170;54.364;18.582;2022-10-15T15:03:19;39.03;;;23.65;;
48363;SDS011;34170;54.364;18.582;2022-10-15T15:05:53;43.55;;;25.33;;
48363;SDS011;34170;54.364;18.582;2022-10-15T15:08:22;42.20;;;25.83;;
48363;SDS011;34170;54.364;18.582;2022-10-15T15:10:51;40.97;;;24.10;;
48363;SDS011;34170;54.364;18.582;2022-10-15T15:13:24;39.72;;;24.73;;
48363;SDS011;34170;54.364;18.582;2022-10-15T15:15:55;38.28;;;23.95;;
48363;SDS011;34170;54.364;18.582;2022-10-15T15:18:23;41.20;;;25.08;;
48363;SDS011;34170;54.364;18.582;2022-10-15T15:20:50;40.17;;;25.60;;
48363;SDS011;34170;54.364;18.582;2022-10-15T15:23:19;39.47;;;24.23;;
48363;SDS011;34170;54.364;18.582;2022-10-15T15:25:48;41.47;;;24.23;;
48363;SDS011;34170;54.364;18.582;2022-10-15T15:28:18;37.88;;;24.55;;
48363;SDS011;34170;54.364;18.582;2022-10-15T15:31:05;43.33;;;25.80;;
48363;SDS011;34170;54.364;18.582;2022-10-15T15:33:34;45.35;;;26.60;;
48363;SDS011;34170;54.364;18.582;2022-10-15T15:38:37;39.60;;;24.60;;
48363;SDS011;34170;54.364;18.582;2022-10-15T15:41:12;38.35;;;24.35;;
48363;SDS011;34170;54.364;18.582;2022-10-15T15:43:41;45.05;;;26.20;;
48363;SDS011;34170;54.364;18.582;2022-10-15T15:46:10;44.22;;;28.48;;
48363;SDS011;34170;54.364;18.582;2022-10-15T15:48:38;45.45;;;23.77;;
48363;SDS011;34170;54.364;18.582;2022-10-15T15:51:27;41.67;;;25.95;;
48363;SDS011;34170;54.364;18.582;2022-10-15T15:53:55;42.88;;;26.90;;
48363;SDS011;34170;54.364;18.582;2022-10-15T15:56:23;41.92;;;26.63;;
48363;SDS011;34170;54.364;18.582;2022-10-15T15:58:51;44.17;;;27.25;;
48363;SDS011;34170;54.364;18.582;2022-10-15T16:01:18;42.92;;;25.60;;
48363;SDS011;34170;54.364;18.582;2022-10-15T16:03:47;46.63;;;27.80;;
48363;SDS011;34170;54.364;18.582;2022-10-15T16:06:14;42.50;;;25.98;;
48363;SDS011;34170;54.364;18.582;2022-10-15T16:08:41;42.08;;;26.52;;
48363;SDS011;34170;54.364;18.582;2022-10-15T16:11:08;42.35;;;27.50;;
48363;SDS011;34170;54.364;18.582;2022-10-15T16:13:36;46.47;;;27.45;;
48363;SDS011;34170;54.364;18.582;2022-10-15T16:16:03;40.25;;;25.98;;
48363;SDS011;34170;54.364;18.582;2022-10-15T16:18:31;40.15;;;25.38;;
48363;SDS011;34170;54.364;18.582;2022-10-15T16:20:58;46.00;;;28.73;;
48363;SDS011;34170;54.364;18.582;2022-10-15T16:23:26;45.90;;;28.77;;
48363;SDS011;34170;54.364;18.582;2022-10-15T16:25:53;45.30;;;27.73;;
48363;SDS011;34170;54.364;18.582;2022-10-15T16:28:23;44.88;;;27.63;;
48363;SDS011;34170;54.364;18.582;2022-10-15T16:30:50;45.10;;;27.65;;
48363;SDS011;34170;54.364;18.582;2022-10-15T16:33:18;42.58;;;27.88;;
48363;SDS011;34170;54.364;18.582;2022-10-15T16:35:49;43.55;;;27.00;;
48363;SDS011;34170;54.364;18.582;2022-10-15T16:38:18;49.72;;;29.77;;